Scroll down
FLIGHT INFORMATION
Alitalia

AZA924

At Arrival Gate

LIEE
 LIMC
DATE: 2021-03-16
GATE: 
GATE DEPARTURE: 06:41
TAKEOFF: 06:50
DATE: 2021-03-16
GATE:  -
LANDING: 07:56
GATE ARRIVAL: 08:01
FLIGHT DATA
Crew: 
Speed: 
833 kph
Altitude: 
30,005 ft
Stage Length: 
710.3 km
Block Time: 
1.3 hrs
Flight Time: 
1.1 hrs
Fuel Used: 
7,821 kg
Cleared Route: LIEE KOVAS GIGGI CORSI AJO ETAGI LIBLO OKROK SUDAS AKUTI TORTU ANAKI DEVOX LIMC
TRACK DATA
50,000 ft 1,000 kts
AIRCRAFT INFO AND CUMULATIVE STATS
Aircraft Type: 
B772
Registration: 
SELCAL: 
ARJK
MSN/LN: 
32783 / 455
Operator: 
Total Flights: 
1
Total Block Time: 
1.3 hrs
Total Flight Time: 
1.1 hrs
Total Fuel Used: 
7,821 kg
DATALINK LOG | Newest first | Current as of: 2022-05-16 08:25:04
LABEL SEQUENCE CONTENT Dn/Up
QD505308:01 32▼ Dn
QC454907:56▼ Dn
2U2222LIMC 130520Z 01006KT CAVOK 03/M02 Q1013 NOSIG▲ Up
2S5821LIMC▼ Dn
QB512306:50▼ Dn
QA421306:41 49.4▼ Dn
A32811CLEARED TO LIMC VIA KOVA6R KOVAS Q213 CORSI UM733 AJO UM858 TORTU M198 ANAKI P860 DEVOX DEVO2E. SQUAWK 2247.▲ Up
B32800LIEE LIMC AZA924 EI-DBK ▼ Dn
Q02458[LINK ACK]▲ Up
Q02458[LINK TEST]▼ Dn


AIRCRAFT HISTORY
FLIGHT DATE FLIGHT NO. ORIGIN DESTINATION CLEARED ROUTE BLOCK TIME FLIGHT TIME FUEL USED PILOT
2021-03-16AZA924LIEE LIMC LIEE KOVAS GIGGI CORSI AJO ETAGI LIBLO OKROK SUDAS AKUTI TORTU ANAKI DEVOX LIMC1.3 hrs1.1 hrs17,243 lbMike Dryden